createdAt,value
2022-07-27T00:01:10.054Z,69.20
2022-07-27T00:03:37.830Z,69.20
2022-07-27T00:06:05.050Z,69.40
2022-07-27T00:08:32.129Z,69.60
2022-07-27T00:10:59.441Z,69.60
2022-07-27T00:13:27.086Z,69.70
2022-07-27T00:15:54.509Z,69.80
2022-07-27T00:18:21.555Z,69.70
2022-07-27T00:20:48.995Z,69.90
2022-07-27T00:23:15.993Z,70.00
2022-07-27T00:25:42.998Z,69.80
2022-07-27T00:28:09.977Z,69.80
2022-07-27T00:30:37.060Z,69.70
2022-07-27T00:33:06.031Z,69.60
2022-07-27T00:35:33.236Z,69.40
2022-07-27T00:38:02.904Z,69.00
2022-07-27T00:40:30.081Z,68.60
2022-07-27T00:42:57.099Z,68.40
2022-07-27T00:45:24.165Z,67.90
2022-07-27T00:47:54.883Z,67.80
2022-07-27T00:50:22.522Z,67.50
2022-07-27T00:52:49.957Z,67.30
2022-07-27T00:55:17.205Z,67.00
2022-07-27T00:57:58.615Z,66.80
2022-07-27T01:00:28.467Z,66.40
2022-07-27T01:02:57.430Z,66.80
2022-07-27T01:05:36.572Z,66.20
2022-07-27T01:08:06.978Z,66.10
2022-07-27T01:10:34.242Z,65.90
2022-07-27T01:13:02.031Z,65.70
2022-07-27T01:15:29.407Z,64.70
2022-07-27T01:17:56.565Z,64.20
2022-07-27T01:20:23.726Z,64.00
2022-07-27T01:22:50.818Z,63.90
2022-07-27T01:25:17.831Z,63.90
2022-07-27T01:27:45.067Z,63.60
2022-07-27T01:30:27.777Z,63.30
2022-07-27T01:33:02.410Z,63.00
2022-07-27T01:35:30.036Z,63.10
2022-07-27T01:37:57.390Z,62.90
2022-07-27T01:40:24.836Z,64.80
2022-07-27T01:42:52.190Z,70.00
2022-07-27T01:45:20.023Z,72.90
2022-07-27T02:00:27.780Z,78.30
2022-07-27T02:02:55.245Z,85.20
2022-07-27T02:05:22.374Z,85.40
2022-07-27T02:07:49.598Z,86.10
2022-07-27T02:10:16.769Z,87.00
2022-07-27T02:12:44.605Z,87.80
2022-07-27T02:15:15.052Z,88.50
2022-07-27T02:17:43.843Z,88.90
2022-07-27T02:20:14.437Z,89.10
2022-07-27T02:22:42.072Z,89.50
2022-07-27T02:25:10.442Z,89.70
2022-07-27T02:27:37.599Z,89.00
2022-07-27T02:30:05.906Z,88.00
2022-07-27T02:32:32.927Z,87.40
2022-07-27T02:35:00.260Z,87.40
2022-07-27T02:37:30.845Z,87.20
2022-07-27T02:39:58.020Z,87.90
2022-07-27T02:42:25.253Z,87.20
2022-07-27T02:44:52.327Z,87.60
2022-07-27T02:47:19.939Z,87.60
2022-07-27T02:49:46.980Z,87.70
2022-07-27T02:52:14.025Z,86.80
2022-07-27T02:54:41.832Z,86.50
2022-07-27T02:57:08.962Z,86.30
2022-07-27T02:59:36.048Z,86.20
2022-07-27T03:02:03.295Z,86.90
2022-07-27T03:04:30.536Z,86.20
2022-07-27T03:06:57.682Z,86.30
2022-07-27T03:09:29.016Z,86.00
2022-07-27T03:12:00.380Z,85.80
2022-07-27T03:14:27.640Z,85.70
2022-07-27T03:16:54.898Z,86.10
2022-07-27T03:19:24.662Z,86.30
2022-07-27T03:21:55.441Z,87.20
2022-07-27T03:24:22.476Z,87.80
2022-07-27T03:26:49.539Z,88.70
2022-07-27T03:29:16.592Z,88.70
2022-07-27T03:31:45.524Z,88.20
2022-07-27T03:34:14.154Z,87.80
2022-07-27T03:36:41.390Z,87.60
2022-07-27T03:39:08.535Z,87.40
2022-07-27T03:41:35.752Z,87.20
2022-07-27T03:44:02.908Z,86.90
2022-07-27T03:46:29.977Z,86.60
2022-07-27T03:48:57.749Z,86.80
2022-07-27T03:51:24.937Z,86.70
2022-07-27T03:53:51.985Z,86.50
2022-07-27T03:56:19.076Z,86.30
2022-07-27T03:58:46.432Z,86.20
2022-07-27T04:01:13.615Z,86.30
2022-07-27T04:03:44.226Z,86.50
2022-07-27T04:06:11.691Z,86.60
2022-07-27T04:08:38.838Z,86.60
2022-07-27T04:11:07.635Z,86.90
2022-07-27T04:13:34.766Z,86.90
2022-07-27T04:16:05.654Z,86.60
2022-07-27T04:18:32.768Z,86.60
2022-07-27T04:21:02.043Z,86.80
2022-07-27T04:23:30.448Z,86.90
2022-07-27T04:26:00.284Z,86.80
2022-07-27T04:28:27.482Z,86.50
2022-07-27T04:30:54.790Z,86.50
2022-07-27T04:33:21.911Z,86.80
2022-07-27T04:35:49.126Z,86.90
2022-07-27T04:38:16.216Z,86.60
2022-07-27T04:40:43.651Z,86.50
2022-07-27T04:43:10.817Z,86.70
2022-07-27T04:45:39.633Z,86.80
2022-07-27T04:48:08.203Z,86.90
2022-07-27T04:50:42.964Z,87.10
2022-07-27T04:53:11.244Z,87.10
2022-07-27T04:55:41.973Z,87.00
2022-07-27T04:58:09.380Z,86.70
2022-07-27T05:00:36.857Z,86.70
2022-07-27T05:03:04.610Z,86.30
2022-07-27T05:05:32.182Z,86.20
2022-07-27T05:07:59.782Z,86.30
2022-07-27T05:10:27.171Z,86.10
2022-07-27T05:12:54.644Z,85.90
2022-07-27T05:15:22.166Z,86.10
2022-07-27T05:17:49.898Z,86.10
2022-07-27T05:20:17.241Z,85.40
2022-07-27T05:22:44.473Z,84.70
2022-07-27T05:25:11.765Z,84.10
2022-07-27T05:27:54.261Z,84.90
2022-07-27T05:30:24.349Z,85.10
2022-07-27T05:32:52.110Z,84.60
2022-07-27T05:35:19.350Z,84.60
2022-07-27T05:37:46.531Z,85.00
2022-07-27T05:40:13.796Z,85.30
2022-07-27T05:42:44.411Z,84.50
2022-07-27T05:45:12.165Z,84.40
2022-07-27T05:47:39.927Z,83.50
2022-07-27T05:50:07.580Z,83.90
2022-07-27T05:52:34.863Z,83.60
2022-07-27T05:55:02.453Z,83.80
2022-07-27T05:57:29.649Z,84.00
2022-07-27T05:59:59.085Z,83.90
2022-07-27T06:02:27.357Z,84.10
2022-07-27T06:04:55.056Z,84.10
2022-07-27T06:07:41.082Z,84.10
2022-07-27T06:10:08.895Z,84.10
2022-07-27T06:12:43.925Z,84.30
2022-07-27T06:15:12.485Z,84.30
2022-07-27T06:17:40.165Z,84.80
2022-07-27T06:20:09.016Z,84.80
2022-07-27T06:22:51.255Z,84.20
2022-07-27T06:25:19.401Z,83.00
2022-07-27T06:27:46.740Z,82.20
2022-07-27T06:30:16.481Z,81.50
2022-07-27T06:32:43.848Z,81.80
2022-07-27T06:35:12.650Z,81.60
2022-07-27T06:37:52.881Z,81.10
2022-07-27T06:40:21.396Z,80.70
2022-07-27T06:42:48.709Z,80.10
2022-07-27T06:45:16.642Z,80.00
2022-07-27T06:47:48.946Z,78.70
2022-07-27T06:50:21.415Z,78.10
2022-07-27T06:52:49.844Z,77.20
2022-07-27T06:55:17.101Z,76.10
2022-07-27T06:57:44.390Z,75.30
2022-07-27T07:00:12.512Z,74.00
2022-07-27T07:02:55.023Z,74.30
2022-07-27T07:05:23.150Z,74.30
2022-07-27T07:07:51.092Z,74.70
2022-07-27T07:10:18.713Z,74.50
2022-07-27T07:12:47.656Z,73.80
2022-07-27T07:15:16.704Z,74.00
2022-07-27T07:17:43.805Z,73.50
2022-07-27T07:20:11.754Z,72.10
2022-07-27T07:22:39.107Z,71.20
2022-07-27T07:25:06.410Z,71.10
2022-07-27T07:27:34.171Z,69.60
2022-07-27T07:30:02.689Z,69.00
2022-07-27T07:32:33.618Z,68.10
2022-07-27T07:35:01.665Z,67.60
2022-07-27T07:37:31.632Z,68.10
2022-07-27T07:40:12.972Z,68.00
2022-07-27T07:43:02.826Z,67.30
2022-07-27T07:45:32.919Z,67.00
2022-07-27T07:48:00.158Z,68.60
2022-07-27T07:50:27.807Z,68.20
2022-07-27T07:52:55.227Z,68.40
2022-07-27T07:55:24.708Z,68.10
2022-07-27T07:57:52.878Z,69.50
2022-07-27T08:00:21.925Z,68.50
2022-07-27T08:02:52.071Z,67.20
2022-07-27T08:05:20.952Z,66.90
2022-07-27T08:07:48.903Z,67.50
2022-07-27T08:10:17.252Z,66.60
2022-07-27T08:12:47.502Z,65.90
2022-07-27T08:15:16.727Z,65.10
2022-07-27T08:17:44.498Z,65.40
2022-07-27T08:20:13.387Z,65.80
2022-07-27T08:22:41.136Z,65.20
2022-07-27T08:25:09.884Z,63.60
2022-07-27T08:27:40.318Z,62.30
2022-07-27T08:30:09.597Z,62.20
2022-07-27T08:33:06.323Z,62.10
2022-07-27T08:35:35.060Z,62.10
2022-07-27T08:38:05.243Z,62.40
2022-07-27T08:40:43.546Z,63.50
2022-07-27T08:43:20.134Z,62.20
2022-07-27T08:45:59.075Z,61.80
2022-07-27T08:48:28.079Z,63.20
2022-07-27T08:50:55.752Z,61.80
2022-07-27T08:53:23.750Z,61.50
2022-07-27T08:55:51.219Z,61.50
2022-07-27T08:58:18.606Z,61.80
2022-07-27T09:00:48.519Z,62.10
2022-07-27T09:03:20.062Z,62.40
2022-07-27T09:05:53.915Z,60.90
2022-07-27T09:08:30.690Z,60.00
2022-07-27T09:11:00.146Z,59.00
2022-07-27T09:13:28.834Z,57.50
2022-07-27T09:16:19.198Z,56.60
2022-07-27T09:18:47.494Z,56.70
2022-07-27T09:21:21.271Z,55.90
2022-07-27T09:24:13.438Z,55.70
2022-07-27T09:27:02.906Z,56.00
2022-07-27T09:29:35.325Z,55.20
2022-07-27T09:32:17.092Z,54.80
2022-07-27T09:34:45.103Z,54.50
2022-07-27T09:37:22.972Z,53.50
2022-07-27T09:39:50.062Z,53.50
2022-07-27T09:43:05.834Z,53.90
2022-07-27T09:45:33.089Z,52.80
2022-07-27T09:48:19.111Z,53.10
2022-07-27T09:51:55.720Z,52.70
2022-07-27T09:53:58.364Z,53.20
2022-07-27T09:56:32.943Z,52.70
2022-07-27T09:59:02.822Z,52.00
2022-07-27T10:01:35.282Z,50.90
2022-07-27T10:04:07.352Z,51.20
2022-07-27T10:06:53.425Z,52.20
2022-07-27T10:09:22.570Z,52.40
2022-07-27T10:11:50.029Z,52.80
2022-07-27T10:14:17.818Z,51.60
2022-07-27T10:16:49.545Z,51.10
2022-07-27T10:19:35.530Z,51.20
2022-07-27T10:22:02.556Z,51.80
2022-07-27T10:24:34.105Z,50.10
2022-07-27T10:27:18.497Z,50.20
2022-07-27T10:29:47.686Z,49.50
2022-07-27T10:32:27.952Z,48.70
2022-07-27T10:34:55.589Z,48.50
2022-07-27T10:37:30.948Z,49.30
2022-07-27T10:40:19.414Z,49.50
2022-07-27T10:42:53.576Z,48.80
2022-07-27T10:45:22.371Z,49.30
2022-07-27T10:47:52.581Z,49.40
2022-07-27T10:50:24.014Z,50.10
2022-07-27T10:52:57.129Z,49.00
2022-07-27T10:55:30.531Z,48.50
2022-07-27T10:57:58.592Z,48.00
2022-07-27T11:00:54.680Z,48.20
2022-07-27T11:03:34.365Z,48.90
2022-07-27T11:06:32.365Z,49.20
2022-07-27T11:09:53.266Z,47.70
2022-07-27T11:11:53.665Z,47.30
2022-07-27T11:14:30.317Z,47.80
2022-07-27T11:19:55.679Z,46.90
2022-07-27T11:23:03.256Z,48.10
2022-07-27T11:25:20.227Z,48.50
2022-07-27T11:27:51.467Z,47.00
2022-07-27T11:30:29.084Z,47.90
2022-07-27T11:32:56.749Z,47.80
2022-07-27T11:35:24.340Z,47.60
2022-07-27T11:38:02.730Z,47.60
2022-07-27T11:41:12.830Z,47.10
2022-07-27T11:43:45.292Z,46.60
2022-07-27T11:46:18.495Z,46.30
2022-07-27T11:49:07.107Z,46.80
2022-07-27T11:51:37.244Z,46.40
2022-07-27T11:54:07.074Z,46.30
2022-07-27T11:56:36.009Z,44.90
2022-07-27T11:59:03.081Z,45.50
2022-07-27T12:01:45.323Z,45.50
2022-07-27T12:04:23.129Z,45.90
2022-07-27T12:07:00.489Z,45.60
2022-07-27T12:09:36.835Z,45.60
2022-07-27T12:12:20.509Z,45.20
2022-07-27T12:14:50.884Z,44.10
2022-07-27T12:17:19.093Z,44.40
2022-07-27T12:19:58.771Z,44.20
2022-07-27T12:22:46.196Z,44.50
2022-07-27T12:25:19.652Z,44.30
2022-07-27T12:28:06.697Z,43.50
2022-07-27T12:30:37.582Z,44.30
2022-07-27T12:33:26.761Z,45.70
2022-07-27T12:35:54.154Z,44.80
2022-07-27T12:38:21.506Z,43.30
2022-07-27T12:41:00.296Z,44.20
2022-07-27T12:43:28.366Z,44.00
2022-07-27T12:45:55.641Z,44.40
2022-07-27T12:48:27.709Z,43.70
2022-07-27T12:51:08.344Z,44.40
2022-07-27T12:53:37.709Z,44.50
2022-07-27T12:56:12.704Z,44.70
2022-07-27T12:58:40.434Z,45.00
2022-07-27T13:01:07.536Z,44.60
2022-07-27T13:03:37.025Z,44.70
2022-07-27T13:06:09.202Z,45.10
2022-07-27T13:08:40.180Z,45.50
2022-07-27T13:11:07.235Z,46.30
2022-07-27T13:13:34.642Z,46.10
2022-07-27T13:16:01.758Z,44.60
2022-07-27T13:18:28.851Z,45.20
2022-07-27T13:20:55.928Z,44.80
2022-07-27T13:23:23.187Z,44.90
2022-07-27T13:25:50.681Z,44.30
2022-07-27T13:28:17.884Z,45.10
2022-07-27T13:30:45.253Z,44.90
2022-07-27T13:33:12.508Z,44.80
2022-07-27T13:35:39.825Z,44.30
2022-07-27T13:38:07.613Z,45.30
2022-07-27T13:40:34.993Z,45.40
2022-07-27T13:43:02.489Z,45.10
2022-07-27T13:45:43.033Z,44.80
2022-07-27T13:48:11.968Z,44.90
2022-07-27T13:50:39.907Z,44.30
2022-07-27T13:53:07.083Z,43.80
2022-07-27T13:55:35.484Z,44.00
2022-07-27T13:58:03.438Z,44.20
2022-07-27T14:00:34.491Z,44.30
2022-07-27T14:03:01.736Z,44.50
2022-07-27T14:05:28.927Z,44.80
2022-07-27T14:07:57.748Z,44.90
2022-07-27T14:10:41.834Z,44.90
2022-07-27T14:13:13.113Z,44.90
2022-07-27T14:15:53.489Z,45.30
2022-07-27T14:18:24.186Z,45.20
2022-07-27T14:20:51.379Z,45.80
2022-07-27T14:23:18.485Z,45.00
2022-07-27T14:25:45.572Z,44.90
2022-07-27T14:28:12.801Z,44.80
2022-07-27T14:30:39.920Z,45.70
2022-07-27T14:33:07.066Z,46.30
2022-07-27T14:35:39.940Z,45.00
2022-07-27T14:38:08.478Z,45.40
2022-07-27T14:40:35.577Z,46.20
2022-07-27T14:43:02.719Z,45.70
2022-07-27T14:45:45.180Z,45.00
2022-07-27T14:48:25.298Z,46.10
2022-07-27T14:51:01.178Z,46.00
2022-07-27T14:53:28.365Z,44.70
2022-07-27T14:55:55.786Z,45.20
2022-07-27T14:58:23.117Z,45.30
2022-07-27T15:00:50.468Z,45.00
2022-07-27T15:03:19.785Z,45.20
2022-07-27T15:05:49.749Z,45.80
2022-07-27T15:08:20.196Z,45.30
2022-07-27T15:10:48.544Z,45.20
2022-07-27T15:13:16.130Z,45.70
2022-07-27T15:15:43.273Z,45.20
2022-07-27T15:18:10.544Z,44.80
2022-07-27T15:20:37.599Z,44.80
2022-07-27T15:23:04.776Z,45.70
2022-07-27T15:25:31.897Z,46.00
2022-07-27T15:27:58.980Z,45.80
2022-07-27T15:30:26.145Z,46.10
2022-07-27T15:32:53.452Z,45.20
2022-07-27T15:35:20.564Z,45.90
2022-07-27T15:37:54.002Z,45.40
2022-07-27T15:40:38.577Z,46.30
2022-07-27T15:43:12.160Z,45.50
2022-07-27T15:45:45.663Z,45.70
2022-07-27T15:48:13.780Z,44.60
2022-07-27T15:50:45.574Z,45.10
2022-07-27T15:53:14.265Z,46.00
2022-07-27T15:55:43.250Z,46.10
2022-07-27T15:58:10.901Z,46.10
2022-07-27T16:00:40.950Z,46.00
2022-07-27T16:03:10.725Z,46.40
2022-07-27T16:05:39.205Z,46.00
2022-07-27T16:08:09.432Z,46.30
2022-07-27T16:10:37.964Z,46.60
2022-07-27T16:13:05.755Z,46.20
2022-07-27T16:15:52.522Z,47.00
2022-07-27T16:18:19.679Z,46.80
2022-07-27T16:20:46.679Z,45.90
2022-07-27T16:23:17.675Z,46.40
2022-07-27T16:26:07.471Z,46.70
2022-07-27T16:28:42.314Z,47.30
2022-07-27T16:31:11.545Z,46.80
2022-07-27T16:33:39.039Z,47.40
2022-07-27T16:36:08.451Z,47.40
2022-07-27T16:38:37.031Z,46.90
2022-07-27T16:41:07.435Z,47.30
2022-07-27T16:43:38.694Z,46.90
2022-07-27T16:46:08.619Z,47.20
2022-07-27T16:48:41.503Z,47.00
2022-07-27T16:51:11.001Z,47.00
2022-07-27T16:53:42.906Z,47.00
2022-07-27T16:56:11.126Z,46.30
2022-07-27T16:58:39.475Z,46.40
2022-07-27T17:01:07.645Z,47.00
2022-07-27T17:03:34.873Z,47.10
2022-07-27T17:06:06.129Z,46.80
2022-07-27T17:08:36.428Z,47.30
2022-07-27T17:11:06.250Z,47.50
2022-07-27T17:13:34.787Z,47.20
2022-07-27T17:16:10.995Z,47.40
2022-07-27T17:18:40.411Z,47.60
2022-07-27T17:21:12.629Z,47.70
2022-07-27T17:23:41.368Z,48.00
2022-07-27T17:26:09.785Z,48.00
2022-07-27T17:28:39.367Z,48.20
2022-07-27T17:31:09.183Z,48.10
2022-07-27T17:33:36.955Z,48.50
2022-07-27T17:36:04.324Z,48.40
2022-07-27T17:38:31.445Z,48.50
2022-07-27T17:40:58.641Z,48.70
2022-07-27T17:43:25.690Z,49.00
2022-07-27T17:45:52.844Z,49.40
2022-07-27T17:48:20.596Z,49.50
2022-07-27T17:50:47.956Z,49.40
2022-07-27T17:53:15.027Z,49.60
2022-07-27T17:55:42.217Z,49.70
2022-07-27T17:58:09.222Z,49.90
2022-07-27T18:00:36.218Z,50.00
2022-07-27T18:03:05.339Z,50.30
2022-07-27T18:05:33.289Z,49.80
2022-07-27T18:08:00.505Z,49.70
2022-07-27T18:10:27.519Z,49.90
2022-07-27T18:12:54.547Z,49.50
2022-07-27T18:15:40.186Z,49.60
2022-07-27T18:18:07.198Z,49.80
2022-07-27T18:20:34.650Z,49.80
2022-07-27T18:23:01.828Z,49.30
2022-07-27T18:25:28.994Z,49.40
2022-07-27T18:27:56.055Z,49.60
2022-07-27T18:30:23.418Z,49.90
2022-07-27T18:32:50.812Z,50.40
2022-07-27T18:35:17.910Z,50.50
2022-07-27T18:37:45.505Z,50.80
2022-07-27T18:40:13.395Z,51.10
2022-07-27T18:42:41.007Z,51.40
2022-07-27T18:45:09.625Z,51.60
2022-07-27T18:47:37.610Z,51.60
2022-07-27T18:50:06.421Z,51.60
2022-07-27T18:52:34.231Z,52.10
2022-07-27T18:55:01.422Z,52.60
2022-07-27T18:57:29.179Z,53.10
2022-07-27T18:59:56.256Z,53.50
2022-07-27T19:02:23.725Z,53.70
2022-07-27T19:04:50.811Z,54.10
2022-07-27T19:07:17.855Z,54.30
2022-07-27T19:09:47.627Z,55.40
2022-07-27T19:12:14.975Z,55.00
2022-07-27T19:14:42.299Z,55.10
2022-07-27T19:17:14.667Z,55.50
2022-07-27T19:19:42.033Z,55.60
2022-07-27T19:22:09.052Z,55.70
2022-07-27T19:24:36.118Z,56.00
2022-07-27T19:27:03.405Z,56.00
2022-07-27T19:29:30.449Z,56.10
2022-07-27T19:31:57.515Z,56.40
2022-07-27T19:34:24.664Z,56.50
2022-07-27T19:36:51.676Z,56.60
2022-07-27T19:39:18.818Z,56.50
2022-07-27T19:41:45.838Z,56.90
2022-07-27T19:44:12.871Z,57.40
2022-07-27T19:46:40.248Z,57.90
2022-07-27T19:49:07.390Z,58.50
2022-07-27T19:51:34.478Z,59.00
2022-07-27T19:54:01.694Z,59.40
2022-07-27T19:56:29.524Z,59.80
2022-07-27T19:58:58.769Z,60.40
2022-07-27T20:01:26.031Z,61.10
2022-07-27T20:03:54.537Z,61.50
2022-07-27T20:06:25.603Z,61.80
2022-07-27T20:08:59.758Z,62.30
2022-07-27T20:11:30.009Z,62.70
2022-07-27T20:14:02.442Z,63.00
2022-07-27T20:16:32.250Z,63.20
2022-07-27T20:19:00.252Z,63.50
2022-07-27T20:21:27.439Z,63.90
2022-07-27T20:23:54.848Z,64.10
2022-07-27T20:26:21.899Z,64.40
2022-07-27T20:28:50.179Z,64.70
2022-07-27T20:31:18.116Z,65.10
2022-07-27T20:33:45.238Z,65.40
2022-07-27T20:36:12.281Z,65.90
2022-07-27T20:38:39.524Z,66.30
2022-07-27T20:41:06.919Z,66.60
2022-07-27T20:43:34.081Z,66.90
2022-07-27T20:46:01.145Z,67.10
2022-07-27T20:48:28.642Z,67.30
2022-07-27T20:50:55.758Z,67.60
2022-07-27T20:53:22.821Z,67.70
2022-07-27T20:55:49.837Z,68.00
2022-07-27T20:58:16.821Z,68.40
2022-07-27T21:00:43.887Z,68.50
2022-07-27T21:03:10.918Z,68.60
2022-07-27T21:05:38.108Z,68.90
2022-07-27T21:08:05.336Z,68.90
2022-07-27T21:10:32.626Z,69.10
2022-07-27T21:12:59.762Z,69.40
2022-07-27T21:15:33.616Z,69.50
2022-07-27T21:18:02.498Z,69.50
2022-07-27T21:20:29.703Z,69.50
2022-07-27T21:23:15.565Z,69.70
2022-07-27T21:25:44.036Z,69.90
2022-07-27T21:28:16.818Z,70.20
2022-07-27T21:30:46.153Z,70.50
2022-07-27T21:33:13.284Z,70.70
2022-07-27T21:35:40.414Z,70.80
2022-07-27T21:38:07.468Z,71.00
2022-07-27T21:40:34.513Z,71.30
2022-07-27T21:43:01.539Z,71.40
2022-07-27T21:45:28.680Z,71.50
2022-07-27T21:47:55.888Z,71.50
2022-07-27T21:50:22.992Z,71.70
2022-07-27T21:52:52.343Z,72.20
2022-07-27T21:55:23.032Z,72.30
2022-07-27T21:57:51.372Z,72.60
2022-07-27T22:00:29.493Z,72.90
2022-07-27T22:02:57.130Z,73.00
2022-07-27T22:05:24.717Z,73.10
2022-07-27T22:07:52.307Z,74.10
2022-07-27T22:10:19.750Z,73.80
2022-07-27T22:12:46.942Z,74.00
2022-07-27T22:15:13.987Z,74.30
2022-07-27T22:17:50.166Z,74.50
2022-07-27T22:20:18.614Z,74.80
2022-07-27T22:22:46.466Z,75.50
2022-07-27T22:25:13.567Z,74.80
2022-07-27T22:27:40.915Z,75.00
2022-07-27T22:30:08.578Z,75.10
2022-07-27T22:32:36.121Z,75.20
2022-07-27T22:35:03.807Z,75.30
2022-07-27T22:37:30.927Z,75.50
2022-07-27T22:39:57.971Z,75.70
2022-07-27T22:42:24.960Z,76.20
2022-07-27T22:44:51.985Z,76.40
2022-07-27T22:47:19.028Z,76.60
2022-07-27T22:49:46.114Z,76.60
2022-07-27T22:52:13.161Z,76.80
2022-07-27T22:54:40.218Z,76.90
2022-07-27T22:57:07.664Z,77.10
2022-07-27T22:59:35.700Z,77.20
2022-07-27T23:02:03.467Z,77.50
2022-07-27T23:04:30.562Z,77.50
2022-07-27T23:06:58.080Z,77.60
2022-07-27T23:09:25.396Z,77.70
2022-07-27T23:11:53.353Z,77.80
2022-07-27T23:14:20.419Z,77.90
2022-07-27T23:16:47.530Z,78.00
2022-07-27T23:19:14.679Z,78.20
2022-07-27T23:21:42.420Z,78.90
2022-07-27T23:24:11.585Z,78.30
2022-07-27T23:26:41.497Z,78.50
2022-07-27T23:29:08.530Z,78.70
2022-07-27T23:31:35.855Z,79.00
2022-07-27T23:34:02.988Z,79.00
2022-07-27T23:36:30.019Z,79.00
2022-07-27T23:38:57.089Z,79.00
2022-07-27T23:41:24.169Z,79.10
2022-07-27T23:43:51.450Z,78.90
2022-07-27T23:46:18.658Z,79.10
2022-07-27T23:48:45.856Z,79.40
2022-07-27T23:51:17.897Z,79.50
2022-07-27T23:53:45.118Z,79.60
2022-07-27T23:56:12.207Z,79.60
2022-07-27T23:58:39.212Z,79.70
